Pagrindinis puslapis
METAR-TAF:

METAR-TAF

Oro uostai :

Stavropolis, Rusija

platuma: 45-20N, ilguma: 042-00E, Aukštis: 453 m

Dabartinis oras

Ataskaita buvo paskelbta 27 minutes, ne 15:00 UTC
Vėjas 17 kt iš Rytų/Pietryčių
Temperatūra 17°C
Drėgmė 55%
Slėgis 1014 hPa
Matomumas 10 km arba daugiau
nėra debesų žemiau 1500 m ir nėra kamuolinių lietaus debesų

METAR: URMT 121500Z 12009MPS CAVOK 17/08 Q1014 R07/010070 NOSIG RMK QFE721

Laikas: 19:27 (15:27 UTC)

Prognozė

Ataskaita buvo paskelbta 1 valandą ir 27 minutes, ne 14:00 UTC
Prognozė galioja nuo 12 metu 15 UTC su 12 metu 24 UTC
Vėjas 14 kt iš Rytų/Pietryčių su gūsio iki 23 kt
Matomumas 10 km arba daugiau
Išsisklaidę debesys ne aukštis 2000 ft
Tapsmas
nuo 12 metu 18 UTC su 12 metu 20 UTC
Vėjas 6 kt iš Rytų/Pietryčių su gūsio iki 17 kt

TAF: URMT 121400Z 1215/1224 12007G12MPS 9999 SCT020 BECMG 1218/1220 12003G09MPS

Orai ataskaitas ir orų prognozės (METAR, TAF).

turimą stotys yra geltonos ir raudonos taškus žemėlapyje.

Perkelti pele per norėdami pamatyti stoties vardą.

Tada spustelėkite, norėdami matyti oro stebėjimo ir prognozės.

Norėdami pakeisti žemėlapį: spustelėkite ant žalios mygtukų su juodo kryžiaus žemyn,; žalią mygtuką su brūkšneliu, jei norite nutolinti; arba žalių rodyklių gretimoms žemėlapius.


METAR-TAF: